Time;durP1;ratioP1;P1;durP2;ratioP2;P2;SDS_P1;SDS_P2;PMS_P1;PMS_P2;Temp;Humidity;BMP_temperature;BMP_pressure;BME280_temperature;BME280_humidity;BME280_pressure;Samples;Min_cycle;Max_cycle;Signal;HPM_P1;HPM_P2
2022/06/15 00:01:43;;;;;;;6.53;3.75;;;512.30;1766.40;;;;;;5108702;28;20020;-75
2022/06/15 00:04:08;;;;;;;12.55;4.20;;;512.30;1792.00;;;;;;5111497;28;20042;-76
2022/06/15 00:06:39;;;;;;;9.38;3.97;;;512.30;1817.60;;;;;;5114656;28;20016;-75
2022/06/15 00:09:07;;;;;;;9.23;4.47;;;512.30;1843.20;;;;;;5111163;28;20392;-75
2022/06/15 00:11:35;;;;;;;7.35;4.13;;;512.20;1843.20;;;;;;5109847;28;20030;-75
2022/06/15 00:14:05;;;;;;;7.18;3.67;;;512.10;1868.80;;;;;;5110869;28;20485;-75
2022/06/15 00:16:31;;;;;;;11.02;3.90;;;512.30;1843.20;;;;;;5106493;28;20040;-75
2022/06/15 00:18:57;;;;;;;8.27;3.75;;;512.10;1868.80;;;;;;5111651;28;20054;-76
2022/06/15 00:21:23;;;;;;;9.45;3.67;;;512.20;1894.40;;;;;;5114081;28;20055;-75
2022/06/15 00:23:50;;;;;;;8.98;4.32;;;512.20;1894.40;;;;;;5114276;28;20016;-75
2022/06/15 00:26:16;;;;;;;10.32;4.30;;;512.10;1945.60;;;;;;5114447;28;20438;-74
2022/06/15 00:28:42;;;;;;;9.90;3.88;;;487.30;1971.20;;;;;;5114114;28;20028;-75
2022/06/15 00:31:08;;;;;;;8.77;4.22;;;487.20;2022.40;;;;;;5114580;28;20019;-75
2022/06/15 00:33:34;;;;;;;8.63;3.40;;;487.10;2048.00;;;;;;5109524;28;20027;-76
2022/06/15 00:36:03;;;;;;;8.25;3.60;;;487.10;2048.00;;;;;;5110310;28;20036;-76
2022/06/15 00:38:32;;;;;;;6.35;3.22;;;487.10;2099.20;;;;;;5113099;28;20062;-76
2022/06/15 00:40:59;;;;;;;10.52;3.53;;;487.00;2124.80;;;;;;5109752;28;20615;-76
2022/06/15 00:43:36;;;;;;;11.00;4.05;;;487.00;2124.80;;;;;;5110888;28;20494;-76
2022/06/15 00:46:33;;;;;;;7.85;3.72;;;487.00;2124.80;;;;;;5113759;28;20091;-75
2022/06/15 00:48:59;;;;;;;11.82;4.18;;;486.90;2150.40;;;;;;5030067;28;20033;-75
2022/06/15 00:51:26;;;;;;;14.15;4.20;;;486.80;2150.40;;;;;;5031266;28;20047;-75
2022/06/15 00:53:53;;;;;;;11.43;3.88;;;486.90;2176.00;;;;;;5031152;28;20076;-75
2022/06/15 00:56:20;;;;;;;10.55;4.10;;;486.90;2150.40;;;;;;5031155;28;20079;-75
2022/06/15 00:58:51;;;;;;;12.07;4.22;;;486.80;2201.60;;;;;;5030888;28;20022;-76
2022/06/15 01:01:17;;;;;;;10.23;4.80;;;486.70;2252.80;;;;;;5031285;28;20081;-75
2022/06/15 01:03:46;;;;;;;7.97;4.00;;;486.70;2252.80;;;;;;5030959;28;20056;-76
2022/06/15 01:06:51;;;;;;;8.32;4.05;;;486.70;2252.80;;;;;;5031207;28;20022;-75
2022/06/15 01:09:26;;;;;;;10.10;4.50;;;486.70;2252.80;;;;;;4933821;29;20028;-75
2022/06/15 01:12:00;;;;;;;11.68;3.70;;;486.70;2278.40;;;;;;4931489;29;20050;-75
2022/06/15 01:14:44;;;;;;;9.18;4.13;;;486.70;2304.00;;;;;;4933461;29;20039;-75
2022/06/15 01:17:40;;;;;;;11.68;4.30;;;486.60;2304.00;;;;;;4931530;29;20032;-75
2022/06/15 01:20:43;;;;;;;9.70;4.07;;;486.60;2329.60;;;;;;4858258;29;20044;-75
2022/06/15 01:23:30;;;;;;;10.27;3.92;;;486.50;2355.20;;;;;;4800983;29;20058;-75
2022/06/15 01:26:31;;;;;;;;;;;461.70;2380.80;;;;;;4841874;29;20055;-75
2022/06/15 01:29:15;;;;;;;13.45;4.47;;;461.60;2380.80;;;;;;4856623;29;19909;-75
2022/06/15 01:31:48;;;;;;;9.00;4.45;;;461.60;2380.80;;;;;;4848438;29;20039;-75
2022/06/15 01:34:41;;;;;;;10.55;4.07;;;461.60;2380.80;;;;;;4849502;29;20033;-75
2022/06/15 01:37:20;;;;;;;7.03;3.72;;;461.60;2380.80;;;;;;4829637;29;20453;-75
2022/06/15 01:40:09;;;;;;;11.02;4.57;;;461.60;2380.80;;;;;;4814049;29;20156;-74
2022/06/15 01:42:41;;;;;;;7.63;3.78;;;461.60;2380.80;;;;;;4831859;29;20034;-75
2022/06/15 01:45:11;;;;;;;8.43;3.65;;;461.60;2355.20;;;;;;4839589;29;20037;-75
2022/06/15 01:47:39;;;;;;;12.43;4.45;;;461.50;2380.80;;;;;;4871792;29;20049;-75
2022/06/15 01:50:15;;;;;;;11.40;4.15;;;461.40;2380.80;;;;;;4871707;29;20052;-75
2022/06/15 01:52:55;;;;;;;8.93;3.95;;;461.50;2380.80;;;;;;4870538;29;20499;-75
2022/06/15 01:55:32;;;;;;;6.50;3.53;;;461.40;2380.80;;;;;;4926354;28;20056;-75
2022/06/15 01:58:04;;;;;;;12.80;4.15;;;461.40;2380.80;;;;;;4976858;28;20515;-75
2022/06/15 02:00:31;;;;;;;11.60;4.13;;;461.30;2380.80;;;;;;4967181;28;20026;-75
2022/06/15 02:03:25;;;;;;;10.20;4.00;;;461.30;2380.80;;;;;;5011011;28;20382;-75
2022/06/15 02:06:28;;;;;;;10.05;3.92;;;461.30;2380.80;;;;;;5049721;28;20107;-75
2022/06/15 02:09:06;;;;;;;6.80;3.78;;;461.50;2380.80;;;;;;5047501;28;20546;-75
2022/06/15 02:11:38;;;;;;;14.45;4.30;;;461.50;2380.80;;;;;;5049659;28;20098;-76
2022/06/15 02:14:19;;;;;;;7.10;4.03;;;461.40;2380.80;;;;;;5073476;28;20035;-75
2022/06/15 02:16:59;;;;;;;12.65;4.55;;;461.50;2355.20;;;;;;5106396;28;20028;-75
2022/06/15 02:19:36;;;;;;;10.40;4.72;;;461.50;2355.20;;;;;;5108538;28;20554;-75
2022/06/15 02:22:08;;;;;;;12.20;5.18;;;461.50;2355.20;;;;;;5104098;28;20020;-74
2022/06/15 02:24:36;;;;;;;15.18;5.30;;;461.30;2380.80;;;;;;5104858;28;20023;-74
2022/06/15 02:27:05;;;;;;;10.35;5.30;;;461.20;2380.80;;;;;;5107078;28;20023;-76
2022/06/15 02:29:34;;;;;;;12.63;4.82;;;461.20;2380.80;;;;;;5109515;28;20107;-75
2022/06/15 02:32:00;;;;;;;8.45;5.03;;;461.20;2380.80;;;;;;5105281;28;20015;-75
2022/06/15 02:34:27;;;;;;;8.02;4.18;;;461.10;2380.80;;;;;;5107100;28;20016;-75
2022/06/15 02:36:53;;;;;;;10.85;5.70;;;460.90;2380.80;;;;;;5107098;28;20020;-76
2022/06/15 02:39:19;;;;;;;11.10;5.55;;;461.20;2380.80;;;;;;5105678;28;20070;-75
2022/06/15 02:41:45;;;;;;;17.23;5.22;;;461.10;2380.80;;;;;;5106245;28;20024;-76
2022/06/15 02:44:14;;;;;;;12.57;5.13;;;461.00;2380.80;;;;;;5105187;28;20020;-75
2022/06/15 02:46:45;;;;;;;7.93;4.88;;;461.00;2380.80;;;;;;5107562;28;20019;-75
2022/06/15 02:49:11;;;;;;;16.23;6.63;;;461.00;2380.80;;;;;;5106854;28;20493;-75
2022/06/15 02:51:49;;;;;;;13.82;5.10;;;461.00;2380.80;;;;;;5104968;28;20094;-76
2022/06/15 02:54:26;;;;;;;12.50;5.80;;;461.00;2380.80;;;;;;5106920;28;20032;-75
2022/06/15 02:56:52;;;;;;;13.55;5.25;;;461.20;2380.80;;;;;;5106557;28;20031;-75
2022/06/15 02:59:19;;;;;;;10.70;5.57;;;461.20;2380.80;;;;;;5106135;28;20016;-75
2022/06/15 03:01:44;;;;;;;8.77;4.80;;;461.20;2380.80;;;;;;5107243;28;20022;-76
2022/06/15 03:04:10;;;;;;;8.45;4.95;;;461.10;2380.80;;;;;;5107473;28;20098;-75
2022/06/15 03:06:36;;;;;;;12.50;4.90;;;461.10;2380.80;;;;;;5101844;28;20095;-75
2022/06/15 03:09:02;;;;;;;14.98;5.78;;;461.10;2380.80;;;;;;5105671;28;20074;-75
2022/06/15 03:11:28;;;;;;;11.50;5.00;;;461.10;2380.80;;;;;;5107091;28;20090;-75
2022/06/15 03:13:54;;;;;;;9.98;5.25;;;461.20;2380.80;;;;;;5107119;28;20023;-75
2022/06/15 03:16:21;;;;;;;15.88;5.65;;;461.10;2380.80;;;;;;5106185;28;20063;-75
2022/06/15 03:18:46;;;;;;;12.05;5.20;;;461.00;2380.80;;;;;;5105761;28;20051;-75
2022/06/15 03:21:12;;;;;;;13.60;5.65;;;461.20;2380.80;;;;;;5105706;28;20067;-74
2022/06/15 03:23:38;;;;;;;19.85;6.32;;;461.20;2380.80;;;;;;5107183;28;20027;-75
2022/06/15 03:26:04;;;;;;;12.73;5.10;;;461.20;2380.80;;;;;;5107361;28;20015;-75
2022/06/15 03:28:30;;;;;;;14.80;6.32;;;461.20;2380.80;;;;;;5104529;28;20048;-75
2022/06/15 03:30:57;;;;;;;8.82;5.88;;;461.20;2380.80;;;;;;5106646;28;20055;-75
2022/06/15 03:33:23;;;;;;;11.32;4.68;;;461.20;2380.80;;;;;;5106425;28;20016;-75
2022/06/15 03:35:49;;;;;;;12.02;5.25;;;461.20;2380.80;;;;;;5107375;28;20058;-75
2022/06/15 03:38:15;;;;;;;9.32;5.57;;;461.10;2380.80;;;;;;5106818;28;20022;-75
2022/06/15 03:40:43;;;;;;;12.00;6.30;;;461.10;2380.80;;;;;;5104885;28;20036;-75
2022/06/15 03:43:10;;;;;;;14.88;6.45;;;461.00;2380.80;;;;;;5105859;28;20470;-75
2022/06/15 03:45:36;;;;;;;10.45;5.70;;;460.90;2380.80;;;;;;5109668;28;20019;-75
2022/06/15 03:48:02;;;;;;;14.95;6.57;;;460.90;2380.80;;;;;;5111146;28;20020;-76
2022/06/15 03:50:31;;;;;;;13.50;5.97;;;460.80;2380.80;;;;;;5108784;28;20035;-76
2022/06/15 03:52:58;;;;;;;11.15;6.10;;;460.80;2380.80;;;;;;5094846;28;20070;-75
2022/06/15 03:55:24;;;;;;;12.40;5.85;;;460.80;2380.80;;;;;;5110899;28;20110;-75
2022/06/15 03:57:50;;;;;;;12.93;6.32;;;460.80;2380.80;;;;;;5110995;28;20095;-75
2022/06/15 04:00:20;;;;;;;13.23;5.88;;;460.90;2380.80;;;;;;5110614;28;20185;-75
2022/06/15 04:02:45;;;;;;;10.43;6.47;;;460.80;2380.80;;;;;;5093540;28;20106;-75
2022/06/15 04:05:26;;;;;;;12.00;5.63;;;461.00;2380.80;;;;;;5111032;28;20442;-76
2022/06/15 04:10:36;;;;;;;13.35;6.05;;;461.20;2380.80;;;;;;5111646;28;20074;-75
2022/06/15 04:13:03;;;;;;;10.95;5.63;;;461.20;2380.80;;;;;;5109759;28;20462;-75
2022/06/15 04:15:29;;;;;;;11.82;6.03;;;461.20;2380.80;;;;;;5102183;28;20118;-75
2022/06/15 04:17:54;;;;;;;11.60;5.93;;;461.30;2380.80;;;;;;5110795;28;20090;-75
2022/06/15 04:20:33;;;;;;;13.63;5.68;;;461.20;2380.80;;;;;;5109671;28;20051;-74
2022/06/15 04:23:10;;;;;;;14.48;5.90;;;461.30;2380.80;;;;;;5109985;28;20020;-75
2022/06/15 04:25:42;;;;;;;13.30;6.65;;;461.40;2380.80;;;;;;5107369;28;20503;-75
2022/06/15 04:28:10;;;;;;;12.15;5.68;;;461.40;2380.80;;;;;;5108480;28;20054;-75
2022/06/15 04:30:36;;;;;;;11.25;5.90;;;461.50;2380.80;;;;;;5110729;28;20486;-75
2022/06/15 04:33:02;;;;;;;12.20;5.95;;;461.70;2380.80;;;;;;5095109;28;20081;-75
2022/06/15 04:35:29;;;;;;;11.40;6.30;;;486.40;2380.80;;;;;;5112936;28;20031;-75
2022/06/15 04:37:55;;;;;;;14.13;6.28;;;486.40;2380.80;;;;;;5109452;28;20023;-76
2022/06/15 04:40:21;;;;;;;14.65;5.93;;;486.50;2380.80;;;;;;5109460;28;20044;-75
2022/06/15 04:42:46;;;;;;;14.07;5.32;;;486.50;2380.80;;;;;;5110417;28;20086;-77
2022/06/15 04:45:14;;;;;;;9.60;5.65;;;486.60;2380.80;;;;;;5110289;28;20417;-76
2022/06/15 04:47:41;;;;;;;13.40;6.63;;;486.60;2380.80;;;;;;5107674;28;20567;-76
2022/06/15 04:50:07;;;;;;;12.20;5.63;;;486.60;2380.80;;;;;;5109401;28;20031;-77
2022/06/15 04:52:34;;;;;;;12.75;7.10;;;486.70;2380.80;;;;;;5110452;28;20028;-76
2022/06/15 04:54:59;;;;;;;15.18;5.47;;;486.80;2380.80;;;;;;5109935;28;20051;-75
2022/06/15 04:57:25;;;;;;;17.73;5.97;;;486.80;2380.80;;;;;;5110435;28;20063;-75
2022/06/15 04:59:51;;;;;;;17.55;5.82;;;486.90;2380.80;;;;;;5110160;28;20016;-74
2022/06/15 05:02:17;;;;;;;18.23;5.95;;;487.00;2380.80;;;;;;5110463;28;20098;-75
2022/06/15 05:04:43;;;;;;;14.18;6.32;;;487.10;2380.80;;;;;;5108005;27;20045;-77
2022/06/15 05:07:09;;;;;;;19.00;6.32;;;487.10;2380.80;;;;;;5134636;27;20019;-78
2022/06/15 05:09:35;;;;;;;12.55;5.97;;;487.30;2380.80;;;;;;5134525;27;20023;-74
2022/06/15 05:12:01;;;;;;;16.02;6.28;;;512.00;2380.80;;;;;;5134128;27;20023;-76
2022/06/15 05:14:26;;;;;;;11.55;5.80;;;512.00;2380.80;;;;;;5134832;27;20081;-78
2022/06/15 05:16:53;;;;;;;13.50;5.82;;;512.20;2304.00;;;;;;5134146;27;20043;-77
2022/06/15 05:19:19;;;;;;;19.60;4.88;;;512.30;2227.20;;;;;;5125563;27;20015;-77
2022/06/15 05:21:45;;;;;;;14.25;4.60;;;512.20;2278.40;;;;;;5113755;28;20042;-75
2022/06/15 05:24:13;;;;;;;9.25;4.22;;;512.20;2176.00;;;;;;5113786;28;20015;-77
2022/06/15 05:26:39;;;;;;;7.07;3.70;;;487.20;2176.00;;;;;;5095361;28;20020;-77
2022/06/15 05:29:06;;;;;;;10.93;4.47;;;512.40;2073.60;;;;;;5114987;27;20025;-76
2022/06/15 05:31:32;;;;;;;6.60;4.30;;;512.60;2022.40;;;;;;5115583;27;20072;-79
2022/06/15 05:33:58;;;;;;;11.35;3.85;;;512.50;2048.00;;;;;;5116107;27;20380;-76
2022/06/15 05:36:30;;;;;;;7.07;3.88;;;512.70;2022.40;;;;;;5104996;28;20076;-76
2022/06/15 05:38:56;;;;;;;6.82;4.25;;;512.70;2073.60;;;;;;5110142;28;20097;-78
2022/06/15 05:41:22;;;;;;;9.63;4.22;;;512.60;2048.00;;;;;;5094764;28;20054;-75
2022/06/15 05:43:52;;;;;;;10.68;3.58;;;512.90;2022.40;;;;;;5108304;28;20019;-78
2022/06/15 05:46:28;;;;;;;9.63;4.20;;;537.60;1996.80;;;;;;5109834;28;20012;-78
2022/06/15 05:48:58;;;;;;;10.45;3.60;;;537.80;1945.60;;;;;;5117052;27;20034;-78
2022/06/15 05:51:24;;;;;;;10.88;3.97;;;537.80;1920.00;;;;;;5100690;28;20074;-77
2022/06/15 05:53:50;;;;;;;9.32;3.72;;;537.90;1920.00;;;;;;5133599;27;20450;-79
2022/06/15 05:56:17;;;;;;;11.70;3.78;;;538.00;2150.40;;;;;;5108780;28;20058;-79
2022/06/15 05:58:43;;;;;;;9.02;3.78;;;538.00;1894.40;;;;;;5094124;28;20047;-77
2022/06/15 06:01:24;;;;;;;9.40;3.35;;;538.10;1843.20;;;;;;5107010;28;20027;-77
2022/06/15 06:03:49;;;;;;;11.20;3.35;;;538.30;1817.60;;;;;;5092272;28;20103;-77
2022/06/15 06:06:15;;;;;;;9.85;4.07;;;538.50;1868.80;;;;;;5116364;27;20099;-77
2022/06/15 06:08:41;;;;;;;27.02;6.00;;;538.50;1817.60;;;;;;5132774;27;20023;-78
2022/06/15 06:11:07;;;;;;;9.63;3.50;;;563.30;1817.60;;;;;;5115045;27;20031;-77
2022/06/15 06:13:33;;;;;;;12.60;3.20;;;563.30;1792.00;;;;;;5114744;27;20047;-78
2022/06/15 06:15:58;;;;;;;7.22;3.50;;;563.50;1740.80;;;;;;5114700;27;20077;-77
2022/06/15 06:18:25;;;;;;;12.65;3.38;;;563.50;1740.80;;;;;;5109248;28;20457;-77
2022/06/15 06:20:51;;;;;;;12.23;3.28;;;563.60;1715.20;;;;;;5105931;27;20031;-77
2022/06/15 06:23:18;;;;;;;6.63;2.70;;;563.70;1689.60;;;;;;5096690;28;20507;-77
2022/06/15 06:25:47;;;;;;;6.35;2.85;;;563.70;1664.00;;;;;;5122801;27;20042;-76
2022/06/15 06:28:25;;;;;;;7.65;2.80;;;563.90;1689.60;;;;;;5114301;27;20027;-77
2022/06/15 06:30:51;;;;;;;5.00;2.58;;;564.00;1664.00;;;;;;5111704;28;20027;-77
2022/06/15 06:33:17;;;;;;;4.20;2.60;;;564.00;1587.20;;;;;;5079230;28;20031;-76
2022/06/15 06:35:44;;;;;;;2.92;1.75;;;564.10;1536.00;;;;;;5106845;28;20193;-76
2022/06/15 06:38:11;;;;;;;8.15;2.58;;;588.80;1536.00;;;;;;5133118;27;20043;-77
2022/06/15 06:40:37;;;;;;;8.57;2.83;;;589.10;1561.60;;;;;;5117834;28;20035;-75
2022/06/15 06:43:03;;;;;;;5.50;2.25;;;589.10;1561.60;;;;;;5122817;28;20027;-75
2022/06/15 06:45:28;;;;;;;6.80;1.95;;;589.10;1536.00;;;;;;5115948;28;20028;-75
2022/06/15 06:47:56;;;;;;;10.93;2.58;;;589.20;1510.40;;;;;;5131371;28;20021;-75
2022/06/15 06:50:22;;;;;;;3.85;1.55;;;589.20;1459.20;;;;;;5132814;28;20045;-76
2022/06/15 06:52:49;;;;;;;5.72;2.30;;;589.20;1408.00;;;;;;5133030;28;20039;-76
2022/06/15 06:55:15;;;;;;;3.88;1.75;;;589.30;1382.40;;;;;;5132874;28;20027;-76
2022/06/15 06:57:41;;;;;;;4.80;2.05;;;589.50;1382.40;;;;;;5118275;28;20032;-76
2022/06/15 07:00:08;;;;;;;5.63;1.85;;;589.50;1382.40;;;;;;5132806;28;20019;-75
2022/06/15 07:02:33;;;;;;;13.57;2.45;;;589.60;1408.00;;;;;;5132801;28;20066;-75
2022/06/15 07:04:59;;;;;;;4.82;2.13;;;589.70;1408.00;;;;;;5133006;28;20047;-75
2022/06/15 07:07:25;;;;;;;4.53;2.00;;;589.70;1382.40;;;;;;5132760;28;20571;-77
2022/06/15 07:09:51;;;;;;;4.03;1.80;;;614.40;1382.40;;;;;;5132925;28;20015;-75
2022/06/15 07:12:16;;;;;;;3.95;1.80;;;614.40;1382.40;;;;;;5123502;28;20099;-76
2022/06/15 07:14:42;;;;;;;3.22;1.88;;;614.50;1331.20;;;;;;5127527;28;20041;-75
2022/06/15 07:17:08;;;;;;;3.78;1.88;;;614.70;1331.20;;;;;;5125443;28;20023;-76
2022/06/15 07:19:34;;;;;;;4.50;1.88;;;614.80;1356.80;;;;;;5126194;27;20027;-75
2022/06/15 07:21:59;;;;;;;9.07;2.00;;;614.80;1356.80;;;;;;5117175;27;20055;-75
2022/06/15 07:24:25;;;;;;;6.43;1.92;;;614.80;1356.80;;;;;;5127328;27;20107;-76
2022/06/15 07:26:51;;;;;;;3.67;1.90;;;614.80;1356.80;;;;;;5115882;27;20107;-76
2022/06/15 07:29:20;;;;;;;15.95;2.55;;;614.80;1356.80;;;;;;5110959;28;20065;-75
2022/06/15 07:31:52;;;;;;;5.97;2.25;;;615.00;1331.20;;;;;;5109467;28;20051;-76
2022/06/15 07:34:19;;;;;;;5.53;2.10;;;615.00;1356.80;;;;;;5095418;28;20178;-75
2022/06/15 07:36:48;;;;;;;4.53;1.95;;;615.20;1331.20;;;;;;5109824;28;20481;-76
2022/06/15 07:39:16;;;;;;;4.45;1.70;;;615.30;1305.60;;;;;;5111066;28;20077;-76
2022/06/15 07:41:42;;;;;;;5.47;1.60;;;640.00;1305.60;;;;;;5103748;27;20027;-76
2022/06/15 07:44:08;;;;;;;7.25;1.80;;;640.00;1254.40;;;;;;5122671;27;20443;-75
2022/06/15 07:46:34;;;;;;;6.00;1.80;;;640.00;1280.00;;;;;;5123160;27;20376;-76
2022/06/15 07:51:53;;;;;;;3.67;1.98;;;640.20;1254.40;;;;;;5101133;28;20404;-76
2022/06/15 07:54:20;;;;;;;3.78;1.75;;;640.20;1228.80;;;;;;5111140;28;20115;-76
2022/06/15 07:56:47;;;;;;;5.68;1.70;;;640.10;1228.80;;;;;;5096825;28;20043;-75
2022/06/15 07:59:13;;;;;;;3.45;1.63;;;640.30;1228.80;;;;;;5111760;28;20016;-75
2022/06/15 08:01:40;;;;;;;3.65;1.70;;;640.40;1254.40;;;;;;5108541;28;20046;-76
2022/06/15 08:04:06;;;;;;;7.28;2.53;;;640.50;1228.80;;;;;;5114746;28;20016;-76
2022/06/15 08:06:33;;;;;;;5.13;1.60;;;640.60;1203.20;;;;;;5101740;28;20068;-76
2022/06/15 08:09:00;;;;;;;4.22;1.60;;;640.70;1177.60;;;;;;5106816;28;20027;-76
2022/06/15 08:11:26;;;;;;;2.40;1.33;;;640.70;1177.60;;;;;;5110150;28;20120;-76
2022/06/15 08:13:52;;;;;;;5.68;1.50;;;640.80;1152.00;;;;;;5109431;28;20008;-76
2022/06/15 08:16:19;;;;;;;4.63;1.33;;;640.80;1152.00;;;;;;5095376;28;20047;-76
2022/06/15 08:18:50;;;;;;;4.13;1.83;;;640.80;1152.00;;;;;;5124142;27;20023;-76
2022/06/15 08:21:21;;;;;;;2.05;1.20;;;665.60;1203.20;;;;;;5134123;27;20019;-77
2022/06/15 08:23:49;;;;;;;5.22;1.80;;;665.60;1177.60;;;;;;5105129;27;20495;-76
2022/06/15 08:26:20;;;;;;;5.30;2.20;;;665.60;1152.00;;;;;;5135210;27;20461;-76
2022/06/15 08:28:54;;;;;;;4.05;2.03;;;665.60;1177.60;;;;;;5135750;27;20521;-76
2022/06/15 08:31:21;;;;;;;4.80;2.75;;;665.70;1152.00;;;;;;5117259;27;20110;-77
2022/06/15 08:33:47;;;;;;;12.23;2.22;;;665.70;1152.00;;;;;;5135354;27;20035;-77
2022/06/15 08:36:14;;;;;;;6.20;2.20;;;665.70;1126.40;;;;;;5135517;27;20027;-78
2022/06/15 08:38:40;;;;;;;6.20;1.77;;;665.70;1126.40;;;;;;5116803;27;20050;-80
2022/06/15 08:41:27;;;;;;;4.43;1.70;;;665.70;1126.40;;;;;;5117022;27;20043;-76
2022/06/15 08:43:57;;;;;;;3.38;1.80;;;665.60;1152.00;;;;;;5115393;27;20019;-79
2022/06/15 08:46:41;;;;;;;5.38;1.70;;;665.70;1177.60;;;;;;5120456;27;20016;-78
2022/06/15 08:49:40;;;;;;;4.35;1.85;;;665.80;1152.00;;;;;;5120608;27;20027;-78
2022/06/15 08:52:17;;;;;;;3.60;1.65;;;665.80;1126.40;;;;;;5116979;27;20473;-77
2022/06/15 08:55:06;;;;;;;8.52;1.83;;;666.00;1126.40;;;;;;5102042;27;20023;-79
2022/06/15 08:57:52;;;;;;;4.55;2.15;;;666.00;1126.40;;;;;;5120845;27;20030;-81
2022/06/15 09:00:26;;;;;;;5.28;2.13;;;666.10;1152.00;;;;;;5109827;27;20057;-77
2022/06/15 09:03:19;;;;;;;4.22;2.25;;;666.20;1152.00;;;;;;5134955;27;20507;-76
2022/06/15 09:05:48;;;;;;;4.55;1.67;;;666.20;1126.40;;;;;;5134461;27;20063;-79
2022/06/15 09:08:29;;;;;;;3.95;1.90;;;666.30;1126.40;;;;;;5116160;27;20039;-77
2022/06/15 09:11:03;;;;;;;9.13;3.70;;;666.40;1126.40;;;;;;5134638;27;20038;-77
2022/06/15 09:13:38;;;;;;;11.70;5.65;;;666.50;1126.40;;;;;;5118516;27;20035;-77
2022/06/15 09:16:15;;;;;;;8.00;2.90;;;691.20;1126.40;;;;;;5134240;27;20028;-79
2022/06/15 09:18:48;;;;;;;4.07;2.20;;;691.30;1152.00;;;;;;5120116;27;20026;-77
2022/06/15 09:21:50;;;;;;;7.32;2.88;;;691.20;1126.40;;;;;;5101349;27;20027;-79
2022/06/15 09:24:32;;;;;;;3.97;1.83;;;691.60;1100.80;;;;;;5014621;28;20072;-80
2022/06/15 09:27:06;;;;;;;4.25;1.80;;;691.60;1075.20;;;;;;5014692;28;20036;-77
2022/06/15 09:29:45;;;;;;;2.40;1.70;;;691.50;1075.20;;;;;;5029973;28;20038;-77
2022/06/15 09:32:17;;;;;;;3.28;1.90;;;691.50;1100.80;;;;;;4994151;28;20024;-76
2022/06/15 09:34:49;;;;;;;7.38;2.20;;;691.80;1100.80;;;;;;5010982;28;20124;-76
2022/06/15 09:37:19;;;;;;;3.85;2.00;;;691.90;1100.80;;;;;;5008971;28;20041;-76
2022/06/15 09:39:45;;;;;;;9.77;3.28;;;691.90;1075.20;;;;;;5010710;28;20077;-77
2022/06/15 09:42:20;;;;;;;5.10;2.00;;;716.80;1100.80;;;;;;5023822;28;20372;-75
2022/06/15 09:45:35;;;;;;;8.47;2.17;;;716.80;1075.20;;;;;;5023592;28;20032;-75
2022/06/15 09:48:10;;;;;;;5.05;1.98;;;716.90;1100.80;;;;;;4971641;28;20050;-75
2022/06/15 09:50:48;;;;;;;4.57;2.10;;;717.10;1075.20;;;;;;4971855;28;20200;-76
2022/06/15 09:53:19;;;;;;;6.18;2.50;;;717.10;1049.60;;;;;;4971962;28;20035;-75
2022/06/15 09:55:51;;;;;;;5.70;2.10;;;717.20;1075.20;;;;;;4971774;28;20121;-76
2022/06/15 09:58:20;;;;;;;5.53;2.70;;;717.40;1075.20;;;;;;4971819;28;20043;-75
2022/06/15 10:00:47;;;;;;;7.75;2.63;;;717.70;1075.20;;;;;;5024487;28;20037;-76
2022/06/15 10:03:28;;;;;;;3.95;2.00;;;742.40;1075.20;;;;;;5044436;28;20026;-77
2022/06/15 10:05:59;;;;;;;5.55;3.53;;;742.50;1100.80;;;;;;5025310;28;20064;-76
2022/06/15 10:08:24;;;;;;;6.70;2.08;;;742.50;1100.80;;;;;;5044448;28;20048;-77
2022/06/15 10:10:57;;;;;;;3.30;1.90;;;742.50;1049.60;;;;;;5020211;28;20530;-78
2022/06/15 10:13:36;;;;;;;6.95;2.33;;;742.60;1024.00;;;;;;5049687;28;20020;-78
2022/06/15 10:16:18;;;;;;;7.22;1.77;;;742.80;1049.60;;;;;;5046830;28;20418;-77
2022/06/15 10:18:48;;;;;;;3.25;1.83;;;742.90;1049.60;;;;;;5042118;28;20036;-78
2022/06/15 10:21:13;;;;;;;7.28;2.47;;;742.90;1049.60;;;;;;5047322;28;20035;-78
2022/06/15 10:23:51;;;;;;;4.53;1.80;;;742.90;1024.00;;;;;;5079393;28;20032;-78
2022/06/15 10:26:35;;;;;;;5.50;2.20;;;743.10;1024.00;;;;;;5093668;28;20029;-79
2022/06/15 10:29:15;;;;;;;8.52;2.55;;;743.00;998.40;;;;;;5091095;28;20023;-79
2022/06/15 10:31:55;;;;;;;4.07;1.90;;;743.10;998.40;;;;;;5091576;28;20043;-78
2022/06/15 10:34:31;;;;;;;6.75;2.17;;;742.80;1024.00;;;;;;5091551;28;20107;-79
2022/06/15 10:37:06;;;;;;;4.53;2.00;;;742.90;998.40;;;;;;5081748;28;20028;-78
2022/06/15 10:39:36;;;;;;;5.75;2.05;;;742.90;998.40;;;;;;5122720;27;20028;-78
2022/06/15 10:42:19;;;;;;;4.60;2.22;;;743.10;998.40;;;;;;5116269;28;20474;-78
2022/06/15 10:45:23;;;;;;;6.07;2.30;;;743.00;998.40;;;;;;5108161;28;20028;-78
2022/06/15 10:48:14;;;;;;;6.57;2.33;;;743.10;998.40;;;;;;4993157;28;20038;-78
2022/06/15 10:51:05;;;;;;;7.75;2.22;;;743.30;998.40;;;;;;5009678;28;20042;-79
2022/06/15 10:53:50;;;;;;;5.28;2.10;;;768.10;972.80;;;;;;5003961;28;20033;-80
2022/06/15 11:02:18;;;;;;;5.80;2.13;;;768.10;921.60;;;;;;5024868;28;20076;-78
2022/06/15 11:04:44;;;;;;;4.18;1.90;;;768.50;921.60;;;;;;5015635;28;20471;-78
2022/06/15 11:07:23;;;;;;;4.45;1.80;;;768.60;921.60;;;;;;5014028;28;20030;-79
2022/06/15 11:09:55;;;;;;;3.60;2.13;;;793.60;972.80;;;;;;5011161;28;20080;-78
2022/06/15 11:12:32;;;;;;;3.60;2.00;;;793.70;921.60;;;;;;5013697;28;20030;-78
2022/06/15 11:15:02;;;;;;;2.90;2.10;;;793.60;896.00;;;;;;5013477;28;20030;-79
2022/06/15 11:20:40;;;;;;;4.25;2.20;;;768.80;870.40;;;;;;5012486;28;20579;-78
2022/06/15 11:23:19;;;;;;;4.25;1.95;;;768.70;896.00;;;;;;5029838;28;20058;-78
2022/06/15 11:25:54;;;;;;;5.18;2.40;;;768.90;921.60;;;;;;5112412;28;20038;-78
2022/06/15 11:28:32;;;;;;;3.03;1.90;;;793.70;947.20;;;;;;5115726;28;20020;-77
2022/06/15 11:31:03;;;;;;;6.05;2.55;;;793.70;947.20;;;;;;5100833;28;20036;-78
2022/06/15 11:33:45;;;;;;;3.70;2.50;;;793.70;947.20;;;;;;5109046;28;20103;-77
2022/06/15 11:36:41;;;;;;;4.50;2.33;;;793.60;921.60;;;;;;5096073;28;20031;-77
2022/06/15 11:39:17;;;;;;;3.78;2.17;;;793.60;947.20;;;;;;5008464;28;20427;-78
2022/06/15 11:41:48;;;;;;;3.55;2.22;;;793.70;947.20;;;;;;5003790;28;20038;-78
2022/06/15 11:44:20;;;;;;;4.30;2.22;;;793.70;947.20;;;;;;5028233;28;20041;-79
2022/06/15 11:47:27;;;;;;;5.30;2.53;;;793.80;947.20;;;;;;5037607;28;20075;-78
2022/06/15 11:49:59;;;;;;;2.95;1.85;;;794.00;896.00;;;;;;5000524;28;20044;-78
2022/06/15 11:52:46;;;;;;;5.75;1.58;;;794.00;896.00;;;;;;5005066;28;20032;-78
2022/06/15 11:55:34;;;;;;;6.05;2.38;;;794.30;870.40;;;;;;5035311;28;20034;-78
2022/06/15 11:58:06;;;;;;;8.60;2.40;;;794.20;870.40;;;;;;5004666;28;20140;-78
2022/06/15 12:00:45;;;;;;;5.13;2.20;;;794.30;870.40;;;;;;5021370;28;20034;-79
2022/06/15 12:03:10;;;;;;;5.90;2.03;;;794.10;870.40;;;;;;5004737;28;20026;-78
2022/06/15 12:05:52;;;;;;;5.00;1.67;;;794.20;870.40;;;;;;5026287;28;20044;-78
2022/06/15 12:08:44;;;;;;;6.68;2.10;;;794.00;870.40;;;;;;5015864;28;20069;-78
2022/06/15 12:14:12;;;;;;;3.70;2.13;;;794.00;844.80;;;;;;5024267;28;20076;-78
2022/06/15 12:17:00;;;;;;;2.60;1.70;;;794.10;844.80;;;;;;5083497;28;20040;-78
2022/06/15 12:19:32;;;;;;;5.28;2.00;;;794.20;870.40;;;;;;5095030;28;20039;-79
2022/06/15 12:22:13;;;;;;;6.57;2.10;;;794.40;870.40;;;;;;5106980;28;20051;-78
2022/06/15 12:25:07;;;;;;;7.10;1.90;;;794.40;844.80;;;;;;5101783;28;20032;-78
2022/06/15 12:27:37;;;;;;;5.00;2.20;;;794.50;844.80;;;;;;5011432;28;20033;-78
2022/06/15 12:30:21;;;;;;;3.65;1.75;;;794.50;844.80;;;;;;4995194;28;20022;-79
2022/06/15 12:32:54;;;;;;;2.70;1.63;;;819.40;844.80;;;;;;5028446;28;20044;-76
2022/06/15 12:35:41;;;;;;;4.95;1.95;;;819.30;844.80;;;;;;5009889;28;20065;-77
2022/06/15 12:38:28;;;;;;;5.07;1.80;;;819.30;844.80;;;;;;5011866;28;20034;-77
2022/06/15 12:41:04;;;;;;;2.70;1.73;;;819.40;819.20;;;;;;5021134;28;20085;-77
2022/06/15 12:43:37;;;;;;;3.28;1.58;;;819.20;844.80;;;;;;4995519;28;20032;-77
2022/06/15 12:46:10;;;;;;;3.50;1.50;;;794.40;844.80;;;;;;5011498;28;20113;-77
2022/06/15 12:49:06;;;;;;;4.78;1.80;;;794.50;870.40;;;;;;5028243;28;20133;-77
2022/06/15 12:51:45;;;;;;;3.20;1.60;;;819.40;870.40;;;;;;5009354;28;20037;-77
2022/06/15 12:54:16;;;;;;;3.95;1.67;;;819.50;819.20;;;;;;5012018;28;20042;-76
2022/06/15 12:57:00;;;;;;;2.15;1.40;;;819.40;844.80;;;;;;5011053;28;20471;-76
2022/06/15 12:59:46;;;;;;;3.47;1.80;;;819.50;844.80;;;;;;5009724;28;20025;-77